Time;durP1;ratioP1;P1;durP2;ratioP2;P2;SDS_P1;SDS_P2;PMS_P1;PMS_P2;Temp;Humidity;BMP_temperature;BMP_pressure;BME280_temperature;BME280_humidity;BME280_pressure;Samples;Min_cycle;Max_cycle;Signal;HPM_P1;HPM_P2
2022/03/29 00:00:23;;;;;;;36.75;17.80;;;8.00;99.90;;;;;;4843194;29;20041;-68
2022/03/29 00:02:49;;;;;;;35.65;18.38;;;;;;;;;;4851968;29;20469;-68
2022/03/29 00:05:15;;;;;;;33.88;16.90;;;;;;;;;;4830079;29;20081;-68
2022/03/29 00:07:41;;;;;;;31.13;17.02;;;;;;;;;;4845224;29;20041;-68
2022/03/29 00:10:08;;;;;;;35.92;17.20;;;;;;;;;;4838463;29;20414;-68
2022/03/29 00:12:34;;;;;;;38.95;16.45;;;;;;;;;;4845158;29;20050;-68
2022/03/29 00:15:05;;;;;;;37.53;18.40;;;7.20;99.90;;;;;;4844958;29;20101;-68
2022/03/29 00:17:31;;;;;;;40.00;18.25;;;;;;;;;;4845206;29;20605;-68
2022/03/29 00:19:57;;;;;;;36.33;17.35;;;;;;;;;;4844089;29;20510;-68
2022/03/29 00:22:24;;;;;;;37.53;19.23;;;;;;;;;;4828071;29;20157;-68
2022/03/29 00:24:50;;;;;;;44.15;20.02;;;;;;;;;;4844656;29;20045;-68
2022/03/29 00:27:16;;;;;;;42.78;19.88;;;7.00;99.90;;;;;;4844932;29;20053;-68
2022/03/29 00:29:41;;;;;;;40.45;20.55;;;8.00;99.90;;;;;;4844984;29;20475;-68
2022/03/29 00:32:07;;;;;;;39.53;19.30;;;7.10;99.90;;;;;;4844358;29;20049;-69
2022/03/29 00:34:36;;;;;;;41.28;20.73;;;;;;;;;;4814971;29;20042;-68
2022/03/29 00:37:03;;;;;;;36.50;18.38;;;;;;;;;;4844094;29;20086;-68
2022/03/29 00:39:29;;;;;;;45.33;20.30;;;;;;;;;;4844179;29;20054;-68
2022/03/29 00:41:56;;;;;;;39.85;19.23;;;7.70;99.90;;;;;;4844575;29;20045;-68
2022/03/29 00:44:29;;;;;;;35.55;18.55;;;7.30;99.90;;;;;;4844773;29;20037;-68
2022/03/29 00:46:55;;;;;;;36.03;18.48;;;;;;;;;;4844231;29;20049;-68
2022/03/29 00:49:21;;;;;;;37.88;18.27;;;;;;;;;;4844478;29;20054;-68
2022/03/29 00:51:48;;;;;;;38.03;18.38;;;;;;;;;;4844334;29;20094;-68
2022/03/29 00:54:14;;;;;;;37.25;18.50;;;;;;;;;;4844211;29;20082;-68
2022/03/29 00:56:40;;;;;;;36.63;16.80;;;;;;;;;;4829110;29;20467;-68
2022/03/29 00:59:06;;;;;;;39.85;18.20;;;;;;;;;;4839488;29;20526;-68
2022/03/29 01:01:32;;;;;;;35.88;17.88;;;;;;;;;;4844230;29;20052;-68
2022/03/29 01:03:58;;;;;;;37.75;17.88;;;6.20;99.90;;;;;;4844190;29;20080;-68
2022/03/29 01:06:24;;;;;;;34.85;17.50;;;;;;;;;;4844273;29;20080;-68
2022/03/29 01:08:50;;;;;;;35.90;16.92;;;;;;;;;;4842936;29;20049;-68
2022/03/29 01:11:17;;;;;;;37.00;17.65;;;;;;;;;;4844146;29;20446;-68
2022/03/29 01:13:43;;;;;;;30.67;16.67;;;;;;;;;;4844025;29;20037;-68
2022/03/29 01:18:56;;;;;;;34.05;16.80;;;;;;;;;;4816142;29;20053;-68
2022/03/29 01:21:25;;;;;;;38.42;16.60;;;7.10;99.90;;;;;;4843487;29;20152;-68
2022/03/29 01:23:51;;;;;;;38.40;16.45;;;;;;;;;;4843893;29;20053;-68
2022/03/29 01:26:17;;;;;;;41.50;17.88;;;;;;;;;;4842703;29;20080;-68
2022/03/29 01:28:44;;;;;;;37.45;17.08;;;7.10;99.90;;;;;;4828973;29;20057;-67
2022/03/29 01:31:11;;;;;;;38.97;18.02;;;7.90;99.90;;;;;;4848009;29;20038;-69
2022/03/29 01:33:37;;;;;;;38.42;19.25;;;;;;;;;;4828650;29;20483;-67
2022/03/29 01:36:03;;;;;;;42.95;18.13;;;6.00;99.90;;;;;;4843671;29;20040;-69
2022/03/29 01:38:29;;;;;;;35.00;17.73;;;6.50;99.90;;;;;;4843607;29;20490;-72
2022/03/29 01:41:07;;;;;;;40.85;19.48;;;;;;;;;;4836347;29;20070;-70
2022/03/29 01:43:34;;;;;;;44.03;19.17;;;;;;;;;;4841770;29;21740;-69
2022/03/29 01:46:00;;;;;;;37.80;19.17;;;;;;;;;;4841714;29;20056;-69
2022/03/29 01:48:27;;;;;;;38.22;18.75;;;;;;;;;;4842880;29;20124;-69
2022/03/29 01:50:53;;;;;;;44.92;19.65;;;;;;;;;;4830087;29;20349;-69
2022/03/29 01:53:24;;;;;;;41.65;19.77;;;;;;;;;;4843675;29;20467;-69
2022/03/29 01:55:54;;;;;;;45.50;21.15;;;;;;;;;;4856956;29;20041;-69
2022/03/29 01:58:20;;;;;;;42.78;20.83;;;;;;;;;;4830314;29;20046;-70
2022/03/29 02:00:47;;;;;;;44.65;20.15;;;;;;;;;;4843452;29;20042;-69
2022/03/29 02:03:13;;;;;;;41.67;21.13;;;;;;;;;;4841281;29;20049;-69
2022/03/29 02:05:39;;;;;;;48.80;21.58;;;;;;;;;;4843612;29;20041;-69
2022/03/29 02:08:05;;;;;;;50.38;22.67;;;;;;;;;;4843113;29;20107;-69
2022/03/29 02:10:31;;;;;;;39.90;21.02;;;7.70;99.90;;;;;;4860032;29;20049;-70
2022/03/29 02:12:57;;;;;;;43.83;21.00;;;;;;;;;;4843074;29;20049;-69
2022/03/29 02:15:23;;;;;;;45.85;21.42;;;;;;;;;;4843328;29;20053;-69
2022/03/29 02:17:49;;;;;;;45.38;20.85;;;;;;;;;;4843037;29;20037;-69
2022/03/29 02:20:15;;;;;;;48.55;21.50;;;;;;;;;;4849306;29;20048;-69
2022/03/29 02:22:42;;;;;;;48.05;22.30;;;7.20;99.90;;;;;;4861538;29;20049;-69
2022/03/29 02:25:10;;;;;;;39.95;21.13;;;;;;;;;;4861704;29;20510;-69
2022/03/29 02:27:37;;;;;;;44.55;21.17;;;;;;;;;;4861550;29;20065;-67
2022/03/29 02:30:03;;;;;;;41.67;20.77;;;7.50;99.90;;;;;;4861675;29;20123;-67
2022/03/29 02:32:29;;;;;;;42.13;21.13;;;;;;;;;;4860785;29;20056;-67
2022/03/29 02:34:56;;;;;;;45.28;21.77;;;;;;;;;;4859317;29;20456;-67
2022/03/29 02:37:22;;;;;;;46.53;21.67;;;;;;;;;;4861713;29;20143;-67
2022/03/29 02:39:48;;;;;;;40.63;20.33;;;;;;;;;;4855211;29;20045;-67
2022/03/29 02:42:14;;;;;;;42.85;20.52;;;;;;;;;;4859815;29;20049;-68
2022/03/29 02:44:40;;;;;;;42.80;19.08;;;;;;;;;;4877891;29;20040;-67
2022/03/29 02:47:06;;;;;;;40.90;19.25;;;;;;;;;;4861641;29;20041;-67
2022/03/29 02:49:32;;;;;;;44.22;20.55;;;;;;;;;;4858214;29;20064;-67
2022/03/29 02:51:58;;;;;;;42.53;21.27;;;;;;;;;;4861275;29;20119;-67
2022/03/29 02:54:25;;;;;;;40.85;19.67;;;;;;;;;;4860306;29;20052;-69
2022/03/29 02:56:51;;;;;;;43.35;21.02;;;;;;;;;;4849115;29;20037;-69
2022/03/29 02:59:17;;;;;;;46.70;20.63;;;;;;;;;;4851574;29;20077;-69
2022/03/29 03:01:43;;;;;;;41.10;19.05;;;;;;;;;;4862128;29;20101;-70
2022/03/29 03:04:12;;;;;;;43.53;21.00;;;;;;;;;;4864601;29;20045;-69
2022/03/29 03:06:39;;;;;;;39.33;19.23;;;;;;;;;;4862688;29;20052;-68
2022/03/29 03:09:05;;;;;;;48.13;20.73;;;;;;;;;;4864921;29;20056;-68
2022/03/29 03:11:31;;;;;;;42.97;18.83;;;;;;;;;;4864787;29;20129;-68
2022/03/29 03:13:57;;;;;;;40.95;19.58;;;;;;;;;;4864719;29;20040;-68
2022/03/29 03:16:23;;;;;;;43.55;19.27;;;6.10;99.90;;;;;;4881276;29;20040;-68
2022/03/29 03:18:49;;;;;;;40.25;18.60;;;7.60;99.90;;;;;;4864516;29;20044;-68
2022/03/29 03:21:15;;;;;;;37.92;17.60;;;;;;;;;;4862577;29;20065;-68
2022/03/29 03:23:41;;;;;;;42.95;17.60;;;;;;;;;;4864224;29;20060;-69
2022/03/29 03:26:08;;;;;;;41.47;18.10;;;;;;;;;;4880904;29;20049;-68
2022/03/29 03:28:34;;;;;;;41.20;18.38;;;;;;;;;;4861968;29;20041;-68
2022/03/29 03:31:00;;;;;;;37.22;17.98;;;;;;;;;;4864471;29;20324;-68
2022/03/29 03:33:27;;;;;;;45.88;18.25;;;;;;;;;;4864194;29;20048;-68
2022/03/29 03:35:53;;;;;;;41.45;17.65;;;;;;;;;;4881095;29;20033;-68
2022/03/29 03:38:19;;;;;;;37.60;18.80;;;;;;;;;;4857010;29;20124;-68
2022/03/29 03:40:45;;;;;;;42.13;18.20;;;;;;;;;;4854609;29;20084;-68
2022/03/29 03:43:11;;;;;;;48.80;18.90;;;;;;;;;;4836593;29;20155;-68
2022/03/29 03:45:37;;;;;;;38.70;18.85;;;;;;;;;;4862220;29;21716;-68
2022/03/29 03:48:04;;;;;;;44.08;17.60;;;;;;;;;;4855883;29;21319;-68
2022/03/29 03:50:30;;;;;;;39.13;17.10;;;;;;;;;;4880830;29;20123;-68
2022/03/29 03:52:56;;;;;;;39.90;17.95;;;;;;;;;;4861721;29;20099;-68
2022/03/29 03:55:23;;;;;;;34.10;17.33;;;;;;;;;;4864023;29;20040;-68
2022/03/29 03:57:49;;;;;;;37.28;17.55;;;;;;;;;;4861687;29;20033;-68
2022/03/29 04:00:16;;;;;;;42.65;18.23;;;7.20;99.90;;;;;;4863807;29;20041;-68
2022/03/29 04:02:43;;;;;;;43.28;18.45;;;;;;;;;;4863617;29;20123;-68
2022/03/29 04:05:13;;;;;;;41.30;18.75;;;;;;;;;;4863586;29;20041;-68
2022/03/29 04:07:39;;;;;;;41.05;19.60;;;;;;;;;;4863875;29;20112;-70
2022/03/29 04:10:07;;;;;;;48.78;20.20;;;;;;;;;;4863483;29;20128;-68
2022/03/29 04:12:33;;;;;;;50.50;19.60;;;;;;;;;;4862577;29;20048;-68
2022/03/29 04:14:59;;;;;;;39.53;19.85;;;;;;;;;;4860969;29;20483;-68
2022/03/29 04:17:25;;;;;;;47.95;20.73;;;;;;;;;;4879927;29;20486;-68
2022/03/29 04:19:51;;;;;;;43.65;18.60;;;;;;;;;;4863517;29;20497;-68
2022/03/29 04:22:18;;;;;;;44.42;19.17;;;;;;;;;;4863405;29;20108;-68
2022/03/29 04:24:47;;;;;;;40.05;20.02;;;;;;;;;;4863742;29;20406;-68
2022/03/29 04:27:14;;;;;;;50.58;20.85;;;;;;;;;;4863316;29;20041;-68
2022/03/29 04:29:40;;;;;;;46.95;20.75;;;;;;;;;;4863173;29;20080;-68
2022/03/29 04:32:06;;;;;;;41.78;19.42;;;7.70;99.90;;;;;;4863263;29;20044;-68
2022/03/29 04:34:34;;;;;;;49.10;20.27;;;;;;;;;;4863663;29;20045;-68
2022/03/29 04:37:00;;;;;;;42.28;20.35;;;7.80;99.90;;;;;;4863095;29;20049;-68
2022/03/29 04:39:26;;;;;;;48.95;19.38;;;7.20;99.90;;;;;;4862657;29;20041;-68
2022/03/29 04:41:53;;;;;;;49.83;22.58;;;;;;;;;;4862138;29;20394;-68
2022/03/29 04:44:19;;;;;;;50.30;21.35;;;;;;;;;;4862943;29;20044;-68
2022/03/29 04:46:45;;;;;;;57.90;23.20;;;;;;;;;;4846725;29;20135;-68
2022/03/29 04:49:11;;;;;;;46.33;21.10;;;;;;;;;;4862996;29;20059;-68
2022/03/29 04:51:37;;;;;;;47.80;20.98;;;;;;;;;;4879697;29;20045;-68
2022/03/29 04:54:03;;;;;;;51.08;21.85;;;;;;;;;;4861303;29;20089;-71
2022/03/29 04:56:29;;;;;;;42.13;19.90;;;;;;;;;;4862999;29;20056;-68
2022/03/29 04:58:56;;;;;;;46.70;21.20;;;;;;;;;;4856963;29;20041;-68
2022/03/29 05:01:22;;;;;;;54.53;22.58;;;;;;;;;;4861521;29;20042;-68
2022/03/29 05:03:48;;;;;;;44.20;19.98;;;;;;;;;;4858383;29;20041;-68
2022/03/29 05:06:14;;;;;;;48.33;21.92;;;;;;;;;;4846523;29;20060;-72
2022/03/29 05:08:40;;;;;;;47.28;22.30;;;;;;;;;;4852316;29;20049;-68
2022/03/29 05:11:06;;;;;;;51.72;21.85;;;;;;;;;;4879384;29;20053;-68
2022/03/29 05:13:33;;;;;;;45.60;21.48;;;;;;;;;;4859607;29;20065;-68
2022/03/29 05:15:59;;;;;;;50.08;21.23;;;;;;;;;;4862588;29;20112;-69
2022/03/29 05:18:25;;;;;;;57.25;24.48;;;;;;;;;;4849651;29;20070;-69
2022/03/29 05:20:51;;;;;;;50.35;22.75;;;6.80;99.90;;;;;;4855961;29;20410;-68
2022/03/29 05:23:17;;;;;;;48.47;21.35;;;7.50;99.90;;;;;;4861849;29;20049;-68
2022/03/29 05:25:43;;;;;;;51.08;21.73;;;;;;;;;;4862485;29;20128;-68
2022/03/29 05:28:10;;;;;;;53.40;23.45;;;;;;;;;;4847344;29;20053;-69
2022/03/29 05:30:36;;;;;;;51.72;22.63;;;7.20;99.90;;;;;;4857330;29;20098;-69
2022/03/29 05:33:02;;;;;;;47.67;22.35;;;;;;;;;;4845099;29;20046;-69
2022/03/29 05:35:33;;;;;;;52.80;22.10;;;;;;;;;;4847276;29;20084;-69
2022/03/29 05:38:01;;;;;;;46.92;21.40;;;6.90;99.90;;;;;;4861988;29;20049;-69
2022/03/29 05:40:28;;;;;;;46.92;21.85;;;;;;;;;;4862171;29;20120;-68
2022/03/29 05:42:55;;;;;;;46.17;21.70;;;6.30;99.90;;;;;;4861181;29;20124;-68
2022/03/29 05:45:21;;;;;;;48.22;22.08;;;;;;;;;;4861879;29;20461;-69
2022/03/29 05:50:32;;;;;;;54.08;22.80;;;;;;;;;;4861901;29;20489;-68
2022/03/29 05:53:00;;;;;;;52.03;22.75;;;7.00;99.90;;;;;;4878673;29;20041;-68
2022/03/29 05:55:26;;;;;;;52.60;22.95;;;;;;;;;;4861811;29;20387;-69
2022/03/29 05:57:52;;;;;;;50.65;22.08;;;;;;;;;;4861696;29;20124;-68
2022/03/29 06:00:22;;;;;;;52.78;24.00;;;;;;;;;;4861806;29;20439;-69
2022/03/29 06:02:48;;;;;;;52.78;23.83;;;;;;;;;;4862137;29;20116;-70
2022/03/29 06:05:14;;;;;;;50.65;21.77;;;;;;;;;;4850999;29;20076;-70
2022/03/29 06:07:40;;;;;;;47.80;22.20;;;;;;;;;;4859177;29;20429;-68
2022/03/29 06:10:07;;;;;;;51.63;23.30;;;;;;;;;;4861659;29;20475;-69
2022/03/29 06:12:33;;;;;;;53.70;24.42;;;;;;;;;;4858337;29;20518;-68
2022/03/29 06:15:08;;;;;;;51.25;24.52;;;;;;;;;;4860408;29;20052;-67
2022/03/29 06:17:35;;;;;;;46.53;21.75;;;;;;;;;;4861437;29;20483;-68
2022/03/29 06:20:03;;;;;;;49.08;21.90;;;;;;;;;;4861304;29;20081;-68
2022/03/29 06:22:31;;;;;;;51.67;23.17;;;;;;;;;;4861636;29;20053;-68
2022/03/29 06:24:58;;;;;;;46.88;22.35;;;;;;;;;;4861381;29;20406;-68
2022/03/29 06:27:24;;;;;;;52.33;23.58;;;;;;;;;;4861541;29;20490;-68
2022/03/29 06:29:50;;;;;;;51.85;23.77;;;;;;;;;;4858024;29;20778;-68
2022/03/29 06:32:18;;;;;;;55.95;23.33;;;;;;;;;;4861393;29;20107;-68
2022/03/29 06:34:44;;;;;;;50.20;22.48;;;;;;;;;;4860750;29;20505;-69
2022/03/29 06:37:11;;;;;;;52.78;23.52;;;;;;;;;;4846006;29;20049;-68
2022/03/29 06:39:37;;;;;;;51.10;23.00;;;;;;;;;;4862198;29;20048;-68
2022/03/29 06:42:03;;;;;;;56.80;23.90;;;;;;;;;;4865132;29;20472;-68
2022/03/29 06:44:33;;;;;;;52.40;23.75;;;;;;;;;;4847810;29;20060;-68
2022/03/29 06:47:02;;;;;;;44.78;22.05;;;;;;;;;;4881741;29;20041;-69
2022/03/29 06:49:29;;;;;;;49.50;23.35;;;;;;;;;;4864741;29;20100;-69
2022/03/29 06:51:56;;;;;;;51.00;23.52;;;;;;;;;;4881885;29;20575;-69
2022/03/29 06:54:22;;;;;;;52.50;24.60;;;;;;;;;;4864892;29;20037;-69
2022/03/29 06:56:48;;;;;;;57.35;26.83;;;7.90;99.90;;;;;;4861988;29;20049;-69
2022/03/29 06:59:14;;;;;;;57.83;25.00;;;;;;;;;;4880233;29;20104;-67
2022/03/29 07:01:40;;;;;;;61.50;26.13;;;;;;;;;;4863724;29;20432;-67
2022/03/29 07:04:07;;;;;;;58.75;23.55;;;;;;;;;;4865003;29;20057;-67
2022/03/29 07:06:33;;;;;;;55.78;24.40;;;;;;;;;;4860180;29;20045;-67
2022/03/29 07:11:46;;;;;;;52.75;24.27;;;;;;;;;;4864591;29;20056;-67
2022/03/29 07:14:12;;;;;;;53.15;25.58;;;;;;;;;;4861959;29;20049;-68
2022/03/29 07:16:39;;;;;;;58.38;25.52;;;;;;;;;;4876921;29;20076;-68
2022/03/29 07:19:09;;;;;;;58.63;24.52;;;;;;;;;;4864492;29;20049;-68
2022/03/29 07:21:39;;;;;;;54.90;26.13;;;;;;;;;;4864513;29;20064;-69
2022/03/29 07:24:06;;;;;;;52.85;26.13;;;7.30;99.90;;;;;;4864559;29;20045;-68
2022/03/29 07:26:32;;;;;;;71.47;26.23;;;7.80;99.90;;;;;;4879740;29;20048;-68
2022/03/29 07:28:58;;;;;;;58.45;27.35;;;;;;;;;;4863105;29;20045;-68
2022/03/29 07:31:24;;;;;;;69.45;25.83;;;;;;;;;;4864557;29;20044;-68
2022/03/29 07:33:50;;;;;;;55.92;24.20;;;;;;;;;;4861993;29;20049;-68
2022/03/29 07:36:16;;;;;;;64.03;24.98;;;;;;;;;;4863816;29;20057;-68
2022/03/29 07:38:42;;;;;;;50.33;23.88;;;;;;;;;;4865413;29;20090;-68
2022/03/29 07:41:08;;;;;;;61.17;25.58;;;;;;;;;;4864843;29;20044;-68
2022/03/29 07:43:34;;;;;;;51.08;22.92;;;;;;;;;;4854423;29;20506;-72
2022/03/29 07:46:00;;;;;;;62.53;23.45;;;;;;;;;;4864885;29;20101;-72
2022/03/29 07:48:27;;;;;;;51.25;23.55;;;;;;;;;;4861976;29;20403;-74
2022/03/29 07:50:53;;;;;;;61.58;22.63;;;;;;;;;;4864645;29;20045;-70
2022/03/29 07:53:21;;;;;;;47.78;22.58;;;;;;;;;;4858275;29;20049;-69
2022/03/29 07:55:47;;;;;;;50.08;21.73;;;;;;;;;;4858459;29;20498;-71
2022/03/29 07:58:13;;;;;;;50.40;22.60;;;;;;;;;;4858125;29;20041;-69
2022/03/29 08:00:39;;;;;;;51.22;22.95;;;;;;;;;;4865010;29;20069;-69
2022/03/29 08:03:11;;;;;;;58.58;23.88;;;7.80;99.90;;;;;;4865311;29;20105;-69
2022/03/29 08:05:39;;;;;;;54.28;22.98;;;7.90;99.90;;;;;;4875115;29;20443;-70
2022/03/29 08:08:05;;;;;;;57.80;24.08;;;;;;;;;;4855869;29;20041;-70
2022/03/29 08:10:32;;;;;;;55.20;23.30;;;7.70;99.90;;;;;;4863980;29;20375;-69
2022/03/29 08:13:03;;;;;;;57.72;23.23;;;7.60;99.90;;;;;;4863676;29;20041;-69
2022/03/29 08:15:29;;;;;;;60.90;22.58;;;;;;;;;;4864013;29;20045;-69
2022/03/29 08:17:56;;;;;;;51.88;23.88;;;;;;;;;;4863962;29;20080;-71
2022/03/29 08:20:22;;;;;;;66.80;23.42;;;;;;;;;;4849479;29;20057;-69
2022/03/29 08:22:49;;;;;;;56.53;23.63;;;7.90;99.90;;;;;;4862667;29;20057;-70
2022/03/29 08:25:17;;;;;;;53.13;24.15;;;8.00;99.90;;;;;;4861279;29;20056;-69
2022/03/29 08:27:45;;;;;;;56.33;23.48;;;7.90;99.90;;;;;;4863524;29;20040;-70
2022/03/29 08:30:12;;;;;;;63.55;23.35;;;7.30;99.90;;;;;;4862349;29;20513;-70
2022/03/29 08:32:39;;;;;;;54.88;22.05;;;;;;;;;;4861002;29;20491;-70
2022/03/29 08:35:07;;;;;;;56.58;23.15;;;8.50;99.90;;;;;;4863613;29;20119;-72
2022/03/29 08:37:35;;;;;;;47.50;23.58;;;;;;;;;;4851510;29;20045;-70
2022/03/29 08:40:03;;;;;;;52.22;22.40;;;8.10;99.90;;;;;;4878964;29;20040;-69
2022/03/29 08:42:29;;;;;;;58.85;23.13;;;8.70;99.90;;;;;;4863286;29;20045;-70
2022/03/29 08:44:55;;;;;;;53.95;23.40;;;;;;;;;;4862694;29;20044;-70
2022/03/29 08:47:21;;;;;;;67.07;24.35;;;;;;;;;;4879880;29;20049;-72
2022/03/29 08:49:49;;;;;;;46.42;22.20;;;;;;;;;;4839752;29;20037;-68
2022/03/29 08:52:18;;;;;;;53.25;22.20;;;8.30;99.90;;;;;;4862604;29;20043;-68
2022/03/29 08:54:44;;;;;;;63.67;23.17;;;8.70;99.90;;;;;;4863042;29;20077;-68
2022/03/29 08:57:11;;;;;;;49.53;22.10;;;;;;;;;;4844586;29;20081;-68
2022/03/29 08:59:37;;;;;;;48.10;21.90;;;;;;;;;;4858411;29;20049;-68
2022/03/29 09:02:18;;;;;;;57.70;21.27;;;8.40;99.90;;;;;;4863531;29;20461;-68
2022/03/29 09:04:45;;;;;;;58.53;22.02;;;;;;;;;;4863647;29;20048;-71
2022/03/29 09:07:11;;;;;;;51.00;22.15;;;;;;;;;;4861285;29;20558;-69
2022/03/29 09:09:41;;;;;;;51.70;23.00;;;8.60;99.90;;;;;;4870271;29;20052;-68
2022/03/29 09:12:20;;;;;;;62.45;22.52;;;8.50;99.90;;;;;;4882490;29;20056;-68
2022/03/29 09:14:54;;;;;;;49.67;20.55;;;;;;;;;;4882524;29;20045;-67
2022/03/29 09:17:48;;;;;;;43.65;19.75;;;8.50;99.90;;;;;;4899084;29;20044;-68
2022/03/29 09:20:21;;;;;;;44.00;20.33;;;8.90;99.90;;;;;;4882012;29;20047;-68
2022/03/29 09:22:49;;;;;;;51.58;19.65;;;8.30;99.90;;;;;;4875858;29;20376;-68
2022/03/29 09:25:21;;;;;;;49.80;20.13;;;8.40;99.90;;;;;;4863599;29;20139;-68
2022/03/29 09:28:03;;;;;;;49.35;20.20;;;8.60;99.90;;;;;;4863532;29;20041;-68
2022/03/29 09:30:38;;;;;;;46.72;19.27;;;;;;;;;;4848159;29;20132;-68
2022/03/29 09:33:31;;;;;;;50.33;19.92;;;8.70;99.90;;;;;;4863604;29;20045;-68
2022/03/29 09:36:03;;;;;;;49.45;19.60;;;8.90;99.90;;;;;;4863566;29;20045;-68
2022/03/29 09:38:37;;;;;;;41.90;17.87;;;8.80;99.90;;;;;;4848174;29;20041;-68
2022/03/29 09:41:04;;;;;;;50.10;18.83;;;9.10;99.90;;;;;;4863686;29;20619;-68
2022/03/29 09:43:32;;;;;;;47.70;17.95;;;9.10;99.90;;;;;;4863336;29;20045;-68
2022/03/29 09:46:00;;;;;;;46.70;17.08;;;9.10;99.90;;;;;;4879155;29;20401;-68
2022/03/29 09:48:29;;;;;;;44.58;16.92;;;;;;;;;;4863619;29;20076;-68
2022/03/29 09:51:10;;;;;;;52.70;18.17;;;9.10;99.90;;;;;;4863574;29;20049;-70
2022/03/29 09:53:41;;;;;;;43.25;16.35;;;;;;;;;;4879946;29;20041;-67
2022/03/29 09:56:10;;;;;;;44.58;17.10;;;9.00;99.90;;;;;;4863492;29;20398;-68
2022/03/29 09:58:37;;;;;;;58.25;17.80;;;9.20;99.90;;;;;;4863172;29;20569;-68
2022/03/29 10:01:03;;;;;;;48.25;18.45;;;;;;;;;;4863326;29;20132;-68
2022/03/29 10:03:33;;;;;;;46.55;16.38;;;9.20;99.90;;;;;;4863048;29;20562;-68
2022/03/29 10:06:03;;;;;;;42.38;15.73;;;9.30;99.90;;;;;;4863125;29;20053;-68
2022/03/29 10:11:22;;;;;;;47.33;17.05;;;;;;;;;;4862143;29;20060;-68
2022/03/29 10:13:49;;;;;;;40.63;15.57;;;8.40;99.90;;;;;;4863323;29;20048;-69
2022/03/29 10:16:16;;;;;;;44.58;16.95;;;9.10;99.90;;;;;;4863010;29;20092;-69
2022/03/29 10:18:46;;;;;;;44.20;15.68;;;9.20;99.90;;;;;;4879741;29;20368;-68
2022/03/29 10:21:14;;;;;;;47.38;14.75;;;9.50;99.90;;;;;;4862781;29;20575;-69
2022/03/29 10:23:49;;;;;;;47.90;13.95;;;9.50;99.90;;;;;;4862892;29;20509;-69
2022/03/29 10:26:21;;;;;;;46.28;15.73;;;9.50;99.90;;;;;;4879623;29;20120;-69
2022/03/29 10:28:51;;;;;;;44.53;15.68;;;9.70;99.90;;;;;;4862828;29;20045;-69
2022/03/29 10:31:29;;;;;;;47.35;15.43;;;9.80;99.90;;;;;;4859155;29;20498;-69
2022/03/29 10:34:11;;;;;;;48.60;15.63;;;9.70;99.90;;;;;;4861959;29;20064;-69
2022/03/29 10:37:09;;;;;;;44.63;16.23;;;9.80;99.90;;;;;;4859577;29;20048;-69
2022/03/29 10:39:42;;;;;;;42.13;15.02;;;9.90;99.90;;;;;;4860118;29;20144;-69
2022/03/29 10:42:27;;;;;;;40.10;14.93;;;10.20;99.90;;;;;;4862880;29;20100;-69
2022/03/29 10:45:16;;;;;;;57.28;16.52;;;;;;;;;;4862577;29;20049;-69
2022/03/29 10:47:58;;;;;;;39.05;14.02;;;9.50;99.90;;;;;;4855593;29;20088;-69
2022/03/29 10:50:47;;;;;;;45.08;14.70;;;10.10;99.90;;;;;;4863087;29;20406;-69
2022/03/29 10:53:33;;;;;;;43.33;14.75;;;10.60;99.90;;;;;;4862564;29;20053;-70
2022/03/29 10:56:15;;;;;;;39.97;14.05;;;10.20;99.90;;;;;;4862962;29;20036;-69
2022/03/29 10:58:59;;;;;;;48.05;13.98;;;;;;;;;;4862565;29;20041;-70
2022/03/29 11:01:26;;;;;;;44.92;14.52;;;;;;;;;;4859292;29;20054;-70
2022/03/29 11:04:04;;;;;;;35.47;13.00;;;10.30;99.90;;;;;;4844331;29;20364;-69
2022/03/29 11:06:31;;;;;;;40.80;12.05;;;;;;;;;;4844063;29;20084;-70
2022/03/29 11:09:08;;;;;;;42.53;14.18;;;10.40;99.90;;;;;;4844204;29;20049;-69
2022/03/29 11:11:47;;;;;;;34.78;12.13;;;10.50;99.90;;;;;;4844069;29;20068;-70
2022/03/29 11:14:29;;;;;;;48.92;13.55;;;;;;;;;;4854778;29;20041;-69
2022/03/29 11:16:56;;;;;;;42.70;11.95;;;;;;;;;;4843682;29;20050;-70
2022/03/29 11:19:48;;;;;;;34.28;11.23;;;10.30;99.90;;;;;;4851025;29;20041;-70
2022/03/29 11:22:29;;;;;;;39.60;13.00;;;9.90;99.90;;;;;;4861969;29;20069;-69
2022/03/29 11:25:10;;;;;;;40.80;11.75;;;10.20;99.90;;;;;;4862490;29;20049;-70
2022/03/29 11:27:37;;;;;;;43.17;11.55;;;10.10;99.90;;;;;;4847293;29;20516;-69
2022/03/29 11:30:06;;;;;;;37.78;11.55;;;9.80;99.90;;;;;;4859340;29;20386;-69
2022/03/29 11:32:34;;;;;;;46.67;11.82;;;10.00;99.90;;;;;;4882243;29;20049;-70
2022/03/29 11:35:00;;;;;;;37.38;11.95;;;;;;;;;;4882160;29;20052;-69
2022/03/29 11:37:30;;;;;;;42.78;12.25;;;10.70;99.90;;;;;;4865557;29;20562;-69
2022/03/29 11:39:57;;;;;;;44.95;11.45;;;10.00;99.90;;;;;;4865454;29;20044;-70
2022/03/29 11:42:23;;;;;;;46.00;12.63;;;;;;;;;;4865324;29;20087;-69
2022/03/29 11:44:51;;;;;;;37.85;10.70;;;10.00;99.90;;;;;;4865313;29;20087;-70
2022/03/29 11:47:18;;;;;;;40.47;10.60;;;10.20;99.90;;;;;;4865640;29;20048;-69
2022/03/29 11:49:49;;;;;;;49.63;11.25;;;;;;;;;;4865195;29;20056;-70
2022/03/29 11:52:18;;;;;;;44.83;10.52;;;;;;;;;;4849825;29;20045;-70
2022/03/29 11:54:51;;;;;;;40.92;11.02;;;10.00;99.90;;;;;;4865298;29;20045;-70
2022/03/29 11:57:29;;;;;;;52.15;12.55;;;9.80;99.90;;;;;;4850077;29;20108;-69
2022/03/29 11:59:57;;;;;;;43.20;12.98;;;10.30;99.90;;;;;;4849898;29;20501;-70
2022/03/29 12:02:23;;;;;;;41.97;11.90;;;;;;;;;;4882054;29;20057;-70
2022/03/29 12:04:49;;;;;;;61.75;11.85;;;9.50;99.90;;;;;;4849514;29;20100;-70
2022/03/29 12:07:17;;;;;;;48.00;10.65;;;;;;;;;;4849482;29;20087;-70
2022/03/29 12:09:47;;;;;;;46.22;12.27;;;9.70;99.90;;;;;;4865127;29;20512;-70
2022/03/29 12:12:13;;;;;;;38.28;10.55;;;;;;;;;;4864990;29;20076;-70
2022/03/29 12:14:39;;;;;;;41.05;10.98;;;;;;;;;;4865006;29;20048;-70
2022/03/29 12:17:07;;;;;;;39.72;11.52;;;9.00;99.90;;;;;;4865199;29;20049;-70
2022/03/29 12:19:36;;;;;;;39.90;11.65;;;9.10;99.90;;;;;;4864903;29;20045;-70
2022/03/29 12:22:07;;;;;;;38.72;11.55;;;9.90;99.90;;;;;;4880229;29;20073;-70
2022/03/29 12:24:36;;;;;;;27.57;11.53;;;9.60;99.90;;;;;;4880173;29;20053;-70
2022/03/29 12:27:08;;;;;;;35.13;10.55;;;10.50;99.90;;;;;;4849437;29;20327;-70
2022/03/29 12:29:44;;;;;;;38.30;12.27;;;9.90;99.90;;;;;;4865008;29;20063;-70
2022/03/29 12:32:11;;;;;;;43.55;11.85;;;;;;;;;;4864532;29;20045;-70
2022/03/29 12:34:37;;;;;;;52.53;12.30;;;10.50;99.90;;;;;;4863821;29;20063;-70
2022/03/29 12:37:05;;;;;;;37.17;10.80;;;11.00;99.90;;;;;;4864896;29;20045;-70
2022/03/29 12:39:37;;;;;;;36.05;11.52;;;10.20;99.00;;;;;;4864900;29;20041;-70
2022/03/29 12:42:08;;;;;;;35.47;11.63;;;10.20;99.90;;;;;;4864293;29;20053;-70
2022/03/29 12:44:36;;;;;;;39.90;11.63;;;;;;;;;;4864398;29;20084;-70
2022/03/29 12:47:04;;;;;;;37.17;13.43;;;10.70;98.40;;;;;;4864437;29;20442;-70
2022/03/29 12:49:31;;;;;;;47.20;13.98;;;10.90;97.90;;;;;;4881150;29;20036;-70
2022/03/29 12:52:02;;;;;;;34.00;11.68;;;11.40;99.90;;;;;;4864258;29;20049;-70
2022/03/29 12:54:46;;;;;;;34.17;12.38;;;;;;;;;;4864687;29;20093;-70
2022/03/29 12:57:21;;;;;;;41.35;13.02;;;11.20;97.40;;;;;;4864179;29;20044;-70
2022/03/29 12:59:50;;;;;;;40.42;11.90;;;11.00;97.30;;;;;;4864089;29;20128;-70
2022/03/29 13:02:16;;;;;;;32.33;11.60;;;;;;;;;;4864048;29;20052;-70
2022/03/29 13:04:49;;;;;;;43.35;12.43;;;12.00;99.90;;;;;;4864089;29;20044;-70
2022/03/29 13:07:48;;;;;;;31.90;12.55;;;10.90;99.90;;;;;;4864102;29;20052;-70
2022/03/29 13:10:26;;;;;;;32.60;11.50;;;11.60;99.90;;;;;;4863471;29;20040;-70
2022/03/29 13:13:06;;;;;;;43.67;12.45;;;12.00;99.90;;;;;;4862273;29;20852;-70
2022/03/29 13:15:36;;;;;;;34.58;12.50;;;11.80;99.80;;;;;;4859497;29;20486;-69
2022/03/29 13:18:04;;;;;;;35.13;12.35;;;11.70;96.50;;;;;;4845639;29;20049;-69
2022/03/29 13:20:36;;;;;;;45.17;14.90;;;11.00;98.50;;;;;;4858072;29;20053;-70
2022/03/29 13:23:03;;;;;;;37.25;14.15;;;;;;;;;;4863682;29;20089;-70
2022/03/29 13:25:36;;;;;;;39.45;13.38;;;;;;;;;;4857692;29;20131;-71
2022/03/29 13:28:04;;;;;;;40.25;13.20;;;12.20;96.00;;;;;;4858489;29;20078;-69
2022/03/29 13:30:30;;;;;;;37.53;14.20;;;;;;;;;;4860827;29;20416;-70
2022/03/29 13:32:57;;;;;;;38.75;13.73;;;12.20;98.90;;;;;;4862088;29;20096;-69
2022/03/29 13:35:23;;;;;;;37.00;13.45;;;;;;;;;;4877710;29;20049;-68
2022/03/29 13:37:49;;;;;;;39.20;14.23;;;;;;;;;;4876513;29;20132;-68
2022/03/29 13:40:16;;;;;;;40.17;14.30;;;;;;;;;;4862499;29;20045;-68
2022/03/29 13:42:42;;;;;;;34.35;14.48;;;;;;;;;;4859434;29;20114;-68
2022/03/29 13:45:09;;;;;;;44.72;15.85;;;12.10;94.20;;;;;;4845335;29;20060;-68
2022/03/29 13:47:36;;;;;;;37.63;14.93;;;12.30;94.80;;;;;;4878748;29;20449;-68
2022/03/29 13:50:03;;;;;;;38.50;15.63;;;;;;;;;;4856839;29;20037;-68
2022/03/29 13:52:29;;;;;;;37.63;15.82;;;;;;;;;;4858064;29;20057;-68